NCAR-RAP Real-Time Weather Data

Output produced by METARs form (06 May 2021  16:08 UTC)
found at http://weather.rap.ucar.edu/surface/
 
KBHM 061553Z 01007KT 10SM FEW150 19/08 A3018 RMK AO2 SLP217 T01890083
KBHM 061453Z 35006KT 10SM FEW035 FEW250 18/09 A3019 RMK AO2 SLP218 T01780094 50006
KBHM 061353Z 35009KT 10SM FEW250 16/10 A3020 RMK AO2 SLP224 T01560100
KBHM 061253Z VRB03KT 10SM FEW150 FEW250 14/10 A3018 RMK AO2 SLP216 T01390100
KBHM 061153Z 00000KT 8SM FEW150 SCT250 11/09 A3017 RMK AO2 SLP212 70001 T01110094 10128 20094 51017
KBHM 061053Z 00000KT 9SM SCT150 10/08 A3015 RMK AO2 SLP205 T01000083
KBHM 060953Z 00000KT 10SM CLR 11/08 A3014 RMK AO2 SLP202 T01060083
KBHM 060853Z 00000KT 10SM CLR 11/09 A3012 RMK AO2 SLP194 T01110089 55001
KBHM 060753Z 00000KT 10SM CLR 11/09 A3011 RMK AO2 SLP192 T01110089
KBHM 060653Z 00000KT 10SM CLR 12/10 A3011 RMK AO2 SLP192 T01220100
KBHM 060553Z 00000KT 10SM CLR 13/11 A3012 RMK AO2 SLP195 T01280111 10206 20128 402330128 51000
KBHM 060453Z 00000KT 10SM CLR 13/11 A3012 RMK AO2 SLP195 T01330111
KBHM 060353Z 00000KT 10SM CLR 16/11 A3012 RMK AO2 SLP195 T01560111
KBHM 060253Z 02005KT 10SM FEW040 16/12 A3012 RMK AO2 SLP194 T01610117 53019
KBHM 060153Z 02006KT 10SM FEW040 17/13 A3010 RMK AO2 SLP187 T01720133